Pickrell, Nebraska
Current Conditions -  °F | °C
As of 12:55 PM on Sunday 23 Nov 2014 (Local Time) from KBIE Reporting Station
Overcast Overcast  
Wind Chill: 35°   Ceiling: 2200
Heat Index: 45°   Visibility: 10mi
Dew Point: 37°   Wind: 29mph
Humidity: 74%   Direction: 350°N
Pressure: 29.49"   Gusts: 40mph
Location:  40.38°N, 96.73°W
Report Text: KBIE 231855Z AUTO 35025G35KT 10SM BKN022 BKN032 OVC050 07/03 A2949 RMK AO2 T00720028
Loading
Personal Weather Stations






























Interactive Weather Map New forecast layout! Learn more

10-Day Weather Forecast

Advertisements
Track Severe Weather on mobile